Time;durP1;ratioP1;P1;durP2;ratioP2;P2;SDS_P1;SDS_P2;PMS_P1;PMS_P2;Temp;Humidity;BMP_temperature;BMP_pressure;BME280_temperature;BME280_humidity;BME280_pressure;Samples;Min_cycle;Max_cycle;Signal;HPM_P1;HPM_P2
2021/07/03 00:01:55;;;;;;;8.33;6.27;;;;;;;16.54;76.74;96864.13;5110032;28;20641;-56
2021/07/03 00:04:21;;;;;;;7.97;6.40;;;;;;;16.58;76.19;96855.41;5096870;28;20438;-54
2021/07/03 00:06:47;;;;;;;8.47;6.57;;;;;;;16.56;76.21;96867.31;5102810;28;20203;-57
2021/07/03 00:09:12;;;;;;;7.67;6.47;;;;;;;16.65;75.88;96872.91;5110284;28;20262;-55
2021/07/03 00:11:38;;;;;;;7.97;6.43;;;;;;;16.52;76.03;96863.59;5095887;28;20803;-56
2021/07/03 00:14:04;;;;;;;8.43;6.43;;;;;;;16.49;76.41;96869.44;5107714;28;20180;-55
2021/07/03 00:16:29;;;;;;;10.17;6.93;;;;;;;16.44;76.42;96874.72;5111335;28;20180;-57
2021/07/03 00:18:55;;;;;;;8.70;6.67;;;;;;;16.48;76.34;96876.56;5102295;28;20622;-53
2021/07/03 00:21:20;;;;;;;8.93;6.70;;;;;;;16.54;75.76;96872.09;5098736;28;20237;-58
2021/07/03 00:23:46;;;;;;;7.67;6.57;;;;;;;16.47;75.89;96874.97;5109672;28;20203;-55
2021/07/03 00:26:11;;;;;;;8.10;7.30;;;;;;;16.42;76.21;96868.88;5096181;28;20560;-57
2021/07/03 00:28:37;;;;;;;9.67;7.43;;;;;;;16.28;76.68;96871.22;5106528;28;20180;-53
2021/07/03 00:31:03;;;;;;;7.50;6.67;;;;;;;16.31;76.54;96872.53;5101053;28;20260;-55
2021/07/03 00:33:28;;;;;;;7.43;6.63;;;;;;;16.11;77.49;96860.03;5091836;28;20189;-53
2021/07/03 00:35:54;;;;;;;10.00;6.73;;;;;;;16.13;77.51;96863.22;5095272;28;20218;-54
2021/07/03 00:38:19;;;;;;;9.03;6.83;;;;;;;16.11;77.78;96870.63;5111396;28;20277;-60
2021/07/03 00:40:44;;;;;;;8.33;6.60;;;;;;;16.04;78.23;96870.09;5112060;28;20255;-54
2021/07/03 00:43:10;;;;;;;7.57;6.27;;;;;;;16.06;78.43;96868.75;5091151;28;20633;-52
2021/07/03 00:45:36;;;;;;;7.83;6.73;;;;;;;16.13;78.24;96865.88;5093634;28;20195;-55
2021/07/03 00:48:01;;;;;;;8.17;7.00;;;;;;;16.18;77.63;96865.88;5110565;28;20675;-57
2021/07/03 00:50:26;;;;;;;9.47;6.73;;;;;;;16.10;78.29;96861.91;5091757;28;20188;-53
2021/07/03 00:52:52;;;;;;;10.87;7.77;;;;;;;16.12;78.21;96865.06;5094288;28;20632;-57
2021/07/03 00:55:17;;;;;;;13.10;7.73;;;;;;;16.07;78.89;96862.41;5096022;28;20185;-60
2021/07/03 00:57:44;;;;;;;9.43;7.13;;;;;;;16.06;79.00;96858.19;5093982;28;20199;-57
2021/07/03 01:00:12;;;;;;;12.97;8.07;;;;;;;16.02;79.24;96862.41;5095384;28;20188;-54
2021/07/03 01:02:38;;;;;;;9.10;7.23;;;;;;;15.87;80.28;96859.72;5110107;28;20738;-58
2021/07/03 01:05:05;;;;;;;9.83;7.23;;;;;;;15.89;80.44;96862.06;5103190;28;20203;-54
2021/07/03 01:07:31;;;;;;;8.63;7.30;;;;;;;15.82;80.56;96857.03;5103667;28;20581;-57
2021/07/03 01:09:56;;;;;;;9.90;7.20;;;;;;;15.69;80.75;96858.28;5095904;28;20193;-55
2021/07/03 01:12:22;;;;;;;9.10;7.67;;;;;;;15.80;79.53;96856.50;5106046;28;20184;-56
2021/07/03 01:14:49;;;;;;;8.67;6.67;;;;;;;15.87;78.68;96862.34;5106817;28;20180;-56
2021/07/03 01:17:16;;;;;;;8.03;6.30;;;;;;;15.92;78.09;96867.66;5083247;28;20251;-55
2021/07/03 01:19:42;;;;;;;8.37;6.90;;;;;;;15.89;77.93;96857.59;5091267;28;20191;-57
2021/07/03 01:22:09;;;;;;;6.77;6.03;;;;;;;15.80;78.22;96859.94;5083998;28;20304;-56
2021/07/03 01:24:36;;;;;;;7.43;6.23;;;;;;;15.89;77.84;96857.59;5102575;28;20200;-56
2021/07/03 01:27:03;;;;;;;10.27;6.77;;;;;;;15.90;77.82;96858.38;5100192;28;20224;-56
2021/07/03 01:29:29;;;;;;;8.30;6.77;;;;;;;15.91;77.61;96850.19;5106423;28;20187;-54
2021/07/03 01:31:57;;;;;;;9.33;6.43;;;;;;;16.03;76.69;96848.13;5097854;28;20185;-56
2021/07/03 01:34:25;;;;;;;10.17;6.37;;;;;;;16.00;76.80;96851.28;5101719;28;20651;-58
2021/07/03 01:36:51;;;;;;;6.00;5.33;;;;;;;15.93;76.71;96842.81;5090165;28;20180;-56
2021/07/03 01:39:16;;;;;;;7.43;6.43;;;;;;;15.97;76.45;96843.88;5092765;28;20227;-56
2021/07/03 01:41:42;;;;;;;8.73;6.50;;;;;;;16.03;76.31;96853.41;5093496;28;20540;-55
2021/07/03 01:44:08;;;;;;;7.47;5.97;;;;;;;15.99;76.50;96852.34;5089995;28;20201;-56
2021/07/03 01:46:34;;;;;;;8.87;5.90;;;;;;;16.15;75.61;96846.06;5092676;28;20571;-55
2021/07/03 01:49:09;;;;;;;6.43;5.77;;;;;;;16.02;76.68;96854.47;5098838;28;20179;-57
2021/07/03 01:51:35;;;;;;;9.63;6.10;;;;;;;15.99;76.64;96851.56;5107444;28;20199;-55
2021/07/03 01:54:01;;;;;;;6.63;5.93;;;;;;;15.88;77.06;96848.09;5097560;28;20267;-56
2021/07/03 01:56:27;;;;;;;7.63;6.33;;;;;;;15.89;77.30;96852.28;5102699;28;20224;-52
2021/07/03 01:58:52;;;;;;;10.13;6.90;;;;;;;15.89;76.95;96857.59;5103121;28;20210;-56
2021/07/03 02:01:18;;;;;;;7.67;6.17;;;;;;;15.89;76.91;96851.50;5092714;28;20179;-59
2021/07/03 02:03:43;;;;;;;7.00;5.83;;;;;;;15.82;77.32;96851.75;5104217;28;20222;-56
2021/07/03 02:06:09;;;;;;;10.03;6.10;;;;;;;15.95;76.63;96856.56;5104967;28;20211;-55
2021/07/03 02:08:35;;;;;;;10.20;6.93;;;;;;;15.94;76.71;96854.19;5105857;28;20198;-58
2021/07/03 02:11:01;;;;;;;8.27;6.60;;;;;;;15.98;76.62;96856.06;5102415;28;20184;-53
2021/07/03 02:13:28;;;;;;;6.40;5.73;;;;;;;15.89;77.24;96852.28;5092282;28;20180;-52
2021/07/03 02:15:54;;;;;;;6.83;6.13;;;;;;;15.78;77.63;96845.38;5102764;28;20184;-54
2021/07/03 02:18:20;;;;;;;8.97;6.93;;;;;;;15.81;77.81;96852.81;5099320;28;20679;-57
2021/07/03 02:20:45;;;;;;;8.87;6.97;;;;;;;15.66;78.41;96845.59;5097860;28;20184;-53
2021/07/03 02:23:11;;;;;;;7.43;6.50;;;;;;;15.69;78.16;96847.72;5090496;28;20206;-53
2021/07/03 02:25:36;;;;;;;8.27;6.50;;;;;;;15.77;77.74;96849.09;5104775;28;20192;-54
2021/07/03 02:28:02;;;;;;;7.67;6.37;;;;;;;15.64;78.18;96838.97;5099108;28;20641;-52
2021/07/03 02:30:30;;;;;;;10.03;6.00;;;;;;;15.51;78.62;96842.03;5095551;28;20216;-52
2021/07/03 02:32:55;;;;;;;9.57;6.50;;;;;;;15.54;78.47;96838.94;5101609;28;20176;-57
2021/07/03 02:35:20;;;;;;;8.20;6.27;;;;;;;15.55;78.11;96838.66;5098341;28;20700;-57
2021/07/03 02:37:47;;;;;;;8.57;6.77;;;;;;;15.63;77.46;96834.75;5098101;28;20633;-53
2021/07/03 02:40:16;;;;;;;9.57;6.40;;;;;;;15.55;77.87;96837.88;5106430;28;20203;-54
2021/07/03 02:42:41;;;;;;;7.20;6.17;;;;;;;15.57;77.96;96828.63;5099289;28;20202;-56
2021/07/03 02:45:09;;;;;;;9.10;6.80;;;;;;;15.58;78.04;96834.72;5100545;28;20196;-55
2021/07/03 02:47:36;;;;;;;8.27;6.57;;;;;;;15.64;77.86;96833.69;5093927;28;20172;-56
2021/07/03 02:50:06;;;;;;;8.07;6.37;;;;;;;15.51;78.34;96839.41;5100337;28;20277;-57
2021/07/03 02:52:31;;;;;;;7.10;6.27;;;;;;;15.38;79.00;96832.72;5090677;28;20629;-58
2021/07/03 02:54:57;;;;;;;8.77;6.57;;;;;;;15.50;78.57;96832.53;5099423;28;20179;-56
2021/07/03 02:57:22;;;;;;;8.37;6.17;;;;;;;15.52;78.38;96848.94;5097348;28;20294;-60
2021/07/03 02:59:47;;;;;;;8.17;6.20;;;;;;;15.53;78.40;96842.63;5095803;28;20549;-56
2021/07/03 03:02:13;;;;;;;8.10;5.93;;;;;;;15.53;78.61;96853.97;5111538;28;20181;-56
2021/07/03 03:04:39;;;;;;;9.20;6.83;;;;;;;15.46;79.12;96855.22;5110267;28;20199;-56
2021/07/03 03:07:05;;;;;;;10.33;6.50;;;;;;;15.45;79.07;96849.13;5099269;28;20554;-59
2021/07/03 03:09:31;;;;;;;8.10;6.40;;;;;;;15.57;78.60;96851.63;5111996;28;20199;-56
2021/07/03 03:11:56;;;;;;;15.37;6.87;;;;;;;15.47;79.20;96852.34;5114538;28;20184;-53
2021/07/03 03:14:23;;;;;;;7.63;6.57;;;;;;;15.50;79.31;96856.28;5113585;28;20176;-60
2021/07/03 03:16:49;;;;;;;9.67;7.13;;;;;;;15.40;79.96;96844.63;5094262;28;20177;-57
2021/07/03 03:19:14;;;;;;;10.07;7.37;;;;;;;15.48;79.78;96851.28;5102017;28;20180;-58
2021/07/03 03:21:39;;;;;;;10.10;7.87;;;;;;;15.69;79.55;96847.72;5109237;28;20198;-54
2021/07/03 03:24:05;;;;;;;9.53;7.90;;;;;;;15.56;80.80;96848.19;5113478;28;20200;-56
2021/07/03 03:26:30;;;;;;;12.10;8.50;;;;;;;15.37;82.51;96837.22;5096581;28;20212;-55
2021/07/03 03:28:56;;;;;;;11.60;8.50;;;;;;;15.26;82.82;96840.06;5107510;28;20181;-55
2021/07/03 03:31:21;;;;;;;12.93;8.70;;;;;;;15.18;83.15;96836.03;5106976;28;20180;-59
2021/07/03 03:33:46;;;;;;;9.20;7.23;;;;;;;15.01;84.14;96834.59;5101256;28;20245;-57
2021/07/03 03:36:12;;;;;;;8.80;7.40;;;;;;;14.91;84.48;96835.31;5107724;28;20245;-54
2021/07/03 03:38:38;;;;;;;10.37;7.23;;;;;;;15.01;83.91;96835.38;5099223;28;20220;-57
2021/07/03 03:41:03;;;;;;;10.53;7.80;;;;;;;15.06;83.65;96832.78;5105200;28;20675;-54
2021/07/03 03:43:28;;;;;;;7.70;6.90;;;;;;;15.17;83.04;96825.72;5099558;28;20583;-57
2021/07/03 03:45:54;;;;;;;10.60;7.20;;;;;;;15.26;82.34;96830.28;5110086;28;20668;-57
2021/07/03 03:48:19;;;;;;;9.87;7.30;;;;;;;15.44;81.24;96833.53;5097151;28;20287;-57
2021/07/03 03:50:45;;;;;;;7.70;6.70;;;;;;;15.64;80.07;96831.84;5094372;28;20696;-55
2021/07/03 03:53:10;;;;;;;7.67;6.53;;;;;;;15.52;80.03;96828.63;5102435;28;20278;-55
2021/07/03 03:55:35;;;;;;;8.63;6.23;;;;;;;15.71;79.22;96826.34;5107325;28;20585;-56
2021/07/03 03:58:01;;;;;;;7.37;6.23;;;;;;;15.75;78.57;96824.75;5097590;28;20701;-54
2021/07/03 04:00:26;;;;;;;8.30;6.73;;;;;;;15.88;77.81;96826.13;5104937;28;20192;-55
2021/07/03 04:02:52;;;;;;;7.33;5.60;;;;;;;16.02;77.50;96822.75;5105006;28;20171;-56
2021/07/03 04:05:18;;;;;;;9.00;6.00;;;;;;;16.10;75.97;96830.19;5101388;28;20222;-55
2021/07/03 04:07:43;;;;;;;8.20;6.37;;;;;;;16.32;75.03;96822.03;5107657;28;20168;-54
2021/07/03 04:10:10;;;;;;;7.07;6.03;;;;;;;16.20;75.13;96830.22;5101748;28;20191;-52
2021/07/03 04:12:36;;;;;;;8.13;6.17;;;;;;;16.18;74.86;96828.88;5094655;28;20644;-57
2021/07/03 04:15:03;;;;;;;9.60;5.97;;;;;;;16.08;75.37;96836.78;5101155;28;20195;-56
2021/07/03 04:17:29;;;;;;;6.23;5.67;;;;;;;16.20;74.22;96832.84;5105531;28;20184;-56
2021/07/03 04:19:54;;;;;;;8.00;6.33;;;;;;;16.29;73.84;96835.75;5094498;28;20181;-57
2021/07/03 04:22:20;;;;;;;6.70;5.60;;;;;;;16.51;73.09;96838.97;5099349;28;20184;-53
2021/07/03 04:24:45;;;;;;;6.10;5.50;;;;;;;16.96;71.05;96835.59;5105063;28;20704;-54
2021/07/03 04:27:11;;;;;;;6.90;5.27;;;;;;;17.30;69.90;96837.69;5108247;28;20187;-54
2021/07/03 04:29:37;;;;;;;5.93;4.97;;;;;;;17.43;69.24;96831.84;5098762;28;20180;-53
2021/07/03 04:32:03;;;;;;;5.67;4.93;;;;;;;17.84;67.27;96832.53;5109379;28;20202;-55
2021/07/03 04:34:29;;;;;;;6.27;5.07;;;;;;;18.20;66.24;96835.81;5102433;28;20202;-57
2021/07/03 04:36:55;;;;;;;5.53;4.90;;;;;;;18.18;66.12;96844.03;5109747;28;20511;-55
2021/07/03 04:39:21;;;;;;;7.33;5.30;;;;;;;18.42;65.03;96840.72;5095095;28;20708;-56
2021/07/03 04:41:46;;;;;;;6.73;5.27;;;;;;;18.61;64.51;96844.38;5107462;28;20180;-55
2021/07/03 04:44:13;;;;;;;6.10;4.63;;;;;;;18.84;63.53;96846.31;5094337;28;20663;-56
2021/07/03 04:46:39;;;;;;;6.73;4.70;;;;;;;19.23;62.14;96835.59;5100348;28;20645;-55
2021/07/03 04:49:04;;;;;;;4.95;4.45;;;;;;;19.51;61.04;96837.50;5107136;28;20188;-56
2021/07/03 04:51:30;;;;;;;5.00;4.32;;;;;;;19.54;60.79;96838.00;5093006;28;20195;-54
2021/07/03 04:53:55;;;;;;;6.40;4.93;;;;;;;19.63;60.65;96831.78;5112133;28;20188;-56
2021/07/03 04:56:21;;;;;;;4.90;4.30;;;;;;;19.96;60.30;96838.03;5104826;28;20260;-56
2021/07/03 04:58:47;;;;;;;5.60;4.30;;;;;;;20.27;58.63;96833.16;5099312;28;20180;-56
2021/07/03 05:01:12;;;;;;;5.63;4.43;;;;;;;20.58;57.54;96830.84;5093106;28;20668;-56
2021/07/03 05:03:38;;;;;;;5.40;4.78;;;;;;;20.86;56.70;96831.75;5109057;28;20184;-57
2021/07/03 05:06:03;;;;;;;5.68;4.97;;;;;;;21.13;56.04;96829.19;5090028;28;20206;-56
2021/07/03 05:08:28;;;;;;;11.35;5.50;;;;;;;21.22;56.08;96829.34;5103187;28;20185;-59
2021/07/03 05:10:54;;;;;;;8.43;5.35;;;;;;;21.36;56.95;96830.94;5099883;28;20180;-59
2021/07/03 05:13:22;;;;;;;8.80;5.32;;;;;;;21.38;56.81;96830.66;5093687;28;20175;-55
2021/07/03 05:15:48;;;;;;;5.35;4.68;;;;;;;21.34;56.56;96837.66;5101069;28;20234;-57
2021/07/03 05:18:13;;;;;;;5.60;5.05;;;;;;;21.48;57.43;96836.59;5099589;28;20185;-57
2021/07/03 05:20:39;;;;;;;6.75;5.57;;;;;;;21.44;57.29;96826.81;5097962;28;20189;-55
2021/07/03 05:23:04;;;;;;;5.85;4.70;;;;;;;21.25;57.88;96826.88;5101779;28;20222;-55
2021/07/03 05:25:30;;;;;;;6.10;5.38;;;;;;;21.34;57.59;96822.47;5089293;28;20200;-56
2021/07/03 05:27:55;;;;;;;5.93;5.30;;;;;;;21.18;57.75;96823.03;5100234;28;20591;-57
2021/07/03 05:30:21;;;;;;;7.28;5.22;;;;;;;20.98;58.44;96830.22;5099370;28;20299;-56
2021/07/03 05:32:47;;;;;;;7.75;5.63;;;;;;;21.01;58.67;96818.97;5098905;28;20868;-57
2021/07/03 05:35:13;;;;;;;6.40;5.60;;;;;;;21.08;58.79;96823.94;5109937;28;20196;-56
2021/07/03 05:37:39;;;;;;;6.10;5.20;;;;;;;21.11;58.22;96826.81;5102820;28;20212;-57
2021/07/03 05:40:05;;;;;;;7.00;5.22;;;;;;;21.06;58.52;96824.25;5100705;28;20228;-56
2021/07/03 05:42:30;;;;;;;8.05;5.80;;;;;;;20.77;58.98;96830.84;5092773;28;20191;-56
2021/07/03 05:44:56;;;;;;;8.13;5.75;;;;;;;20.98;58.69;96829.44;5102018;28;20208;-53
2021/07/03 05:47:21;;;;;;;7.53;5.63;;;;;;;21.22;58.51;96824.00;5103951;28;20184;-57
2021/07/03 05:49:48;;;;;;;7.72;5.40;;;;;;;21.32;57.52;96819.28;5102667;28;20266;-58
2021/07/03 05:52:13;;;;;;;6.95;5.57;;;;;;;21.58;56.59;96819.59;5096196;28;20188;-54
2021/07/03 05:54:39;;;;;;;5.65;5.13;;;;;;;21.63;56.62;96821.38;5091723;28;20198;-58
2021/07/03 05:57:04;;;;;;;6.45;4.90;;;;;;;21.67;57.13;96825.06;5103120;28;20180;-56
2021/07/03 05:59:30;;;;;;;6.35;5.60;;;;;;;21.82;56.44;96830.09;5101672;28;20186;-58
2021/07/03 06:01:55;;;;;;;5.22;4.57;;;;;;;22.00;55.76;96829.22;5101804;28;20207;-56
2021/07/03 06:04:21;;;;;;;6.38;5.38;;;;;;;22.10;56.22;96821.00;5100972;28;20609;-57
2021/07/03 06:06:46;;;;;;;8.07;5.55;;;;;;;22.27;56.10;96826.50;5102120;28;20776;-57
2021/07/03 06:09:11;;;;;;;5.65;5.05;;;;;;;22.30;55.40;96819.75;5104024;28;20235;-56
2021/07/03 06:11:37;;;;;;;5.90;5.05;;;;;;;22.13;54.75;96816.91;5101232;28;20329;-58
2021/07/03 06:14:02;;;;;;;6.07;5.38;;;;;;;22.43;54.80;96818.16;5102834;28;20632;-57
2021/07/03 06:16:28;;;;;;;6.25;5.43;;;;;;;22.48;54.46;96820.69;5100346;28;20602;-62
2021/07/03 06:18:55;;;;;;;6.20;5.03;;;;;;;22.55;54.40;96803.19;5094816;28;20194;-58
2021/07/03 06:21:21;;;;;;;5.43;4.63;;;;;;;22.70;52.75;96810.03;5102350;28;20189;-59
2021/07/03 06:23:46;;;;;;;5.65;4.65;;;;;;;22.94;52.06;96810.56;5102472;28;20195;-58
2021/07/03 06:26:12;;;;;;;6.47;4.53;;;;;;;22.86;52.61;96813.16;5094706;28;20185;-59
2021/07/03 06:28:37;;;;;;;6.40;4.68;;;;;;;22.84;51.57;96805.47;5107987;28;20224;-58
2021/07/03 06:31:02;;;;;;;4.50;4.10;;;;;;;22.95;51.04;96803.34;5101624;28;20195;-57
2021/07/03 06:33:31;;;;;;;5.07;4.35;;;;;;;22.86;50.85;96800.59;5106190;28;20187;-59
2021/07/03 06:35:56;;;;;;;5.28;4.40;;;;;;;22.88;50.91;96801.09;5114900;28;20233;-58
2021/07/03 06:38:22;;;;;;;5.57;5.07;;;;;;;22.95;50.93;96809.47;5097175;28;20220;-59
2021/07/03 06:40:47;;;;;;;6.15;4.40;;;;;;;22.97;50.80;96809.16;5101558;28;20199;-56
2021/07/03 06:43:13;;;;;;;5.32;4.75;;;;;;;23.13;48.94;96810.34;5107640;28;20574;-59
2021/07/03 06:45:38;;;;;;;5.22;4.68;;;;;;;23.34;48.60;96808.75;5098244;28;20197;-58
2021/07/03 06:48:04;;;;;;;4.85;4.20;;;;;;;23.67;48.14;96811.13;5108941;28;20184;-58
2021/07/03 06:50:29;;;;;;;4.80;4.30;;;;;;;23.81;47.94;96804.53;5096878;28;20188;-62
2021/07/03 06:52:54;;;;;;;5.47;4.75;;;;;;;23.75;48.60;96808.44;5109914;28;20180;-61
2021/07/03 06:55:20;;;;;;;4.60;4.20;;;;;;;23.96;47.81;96801.41;5097432;28;20195;-56
2021/07/03 06:57:45;;;;;;;5.97;4.45;;;;;;;24.22;47.17;96814.13;5110431;28;20189;-56
2021/07/03 07:00:11;;;;;;;4.50;4.10;;;;;;;24.26;48.95;96817.72;5102632;28;20187;-55
2021/07/03 07:02:37;;;;;;;4.13;3.72;;;;;;;24.19;47.23;96815.50;5106708;28;20237;-54
2021/07/03 07:05:06;;;;;;;5.57;4.20;;;;;;;24.39;46.47;96817.59;5110116;28;20591;-58
2021/07/03 07:07:31;;;;;;;6.80;4.40;;;;;;;24.44;46.39;96817.44;5101810;28;20188;-60
2021/07/03 07:09:57;;;;;;;5.22;4.70;;;;;;;24.52;45.83;96815.09;5101571;28;20689;-55
2021/07/03 07:12:22;;;;;;;4.68;4.10;;;;;;;24.42;45.78;96813.50;5109820;28;20188;-59
2021/07/03 07:14:47;;;;;;;4.97;4.03;;;;;;;24.22;46.67;96814.13;5095195;28;20223;-57
2021/07/03 07:17:13;;;;;;;4.47;3.58;;;;;;;24.34;45.84;96809.72;5098883;28;20188;-56
2021/07/03 07:19:38;;;;;;;4.60;4.00;;;;;;;24.53;45.53;96809.41;5093448;28;20218;-58
2021/07/03 07:22:04;;;;;;;5.15;4.03;;;;;;;24.65;44.59;96803.41;5114065;28;20180;-58
2021/07/03 07:24:29;;;;;;;4.13;3.72;;;;;;;24.70;44.24;96803.25;5097928;28;20586;-61
2021/07/03 07:26:54;;;;;;;6.38;3.80;;;;;;;24.69;43.54;96809.72;5091697;28;20208;-57
2021/07/03 07:29:20;;;;;;;4.32;3.92;;;;;;;24.70;44.12;96801.34;5090551;28;20185;-55
2021/07/03 07:31:47;;;;;;;3.78;3.47;;;;;;;24.77;43.28;96803.56;5083137;28;20524;-51
2021/07/03 07:34:13;;;;;;;4.93;3.92;;;;;;;24.82;44.00;96801.50;5093200;28;20228;-57
2021/07/03 07:36:38;;;;;;;4.10;3.70;;;;;;;24.74;44.03;96804.22;5092242;28;20213;-56
2021/07/03 07:39:04;;;;;;;5.20;3.92;;;;;;;24.89;43.39;96811.00;5096860;28;20299;-57
2021/07/03 07:41:29;;;;;;;3.95;3.55;;;;;;;25.01;44.09;96801.19;5107342;28;20189;-61
2021/07/03 07:43:55;;;;;;;5.97;4.43;;;;;;;24.91;44.90;96796.16;5101687;28;20659;-57
2021/07/03 07:46:20;;;;;;;4.60;4.03;;;;;;;24.80;44.77;96795.66;5111151;28;20572;-54
2021/07/03 07:48:46;;;;;;;5.30;4.45;;;;;;;24.75;45.11;96792.34;5114954;28;20226;-58
2021/07/03 07:51:11;;;;;;;4.72;4.32;;;;;;;24.95;45.61;96790.97;5095999;28;20195;-57
2021/07/03 07:53:36;;;;;;;6.07;4.43;;;;;;;25.11;46.08;96792.81;5104927;28;20706;-57
2021/07/03 07:56:02;;;;;;;4.70;4.22;;;;;;;24.82;47.60;96787.31;5105951;28;20184;-57
2021/07/03 07:58:28;;;;;;;5.38;4.53;;;;;;;24.90;46.77;96791.13;5099906;28;20192;-55
2021/07/03 08:00:54;;;;;;;4.75;4.30;;;;;;;24.79;46.62;96790.63;5104941;28;20235;-55
2021/07/03 08:03:20;;;;;;;4.85;4.15;;;;;;;24.50;46.34;96787.81;5094011;28;20716;-56
2021/07/03 08:05:46;;;;;;;5.50;4.00;;;;;;;24.40;46.47;96784.34;5094223;28;20295;-57
2021/07/03 08:08:12;;;;;;;4.35;3.95;;;;;;;24.62;46.51;96779.94;5097965;28;20211;-57
2021/07/03 08:10:39;;;;;;;5.13;4.22;;;;;;;24.80;46.37;96784.94;5094124;28;20204;-55
2021/07/03 08:13:05;;;;;;;5.22;4.30;;;;;;;24.81;46.34;96775.78;5101245;28;20184;-56
2021/07/03 08:15:31;;;;;;;4.90;4.47;;;;;;;25.04;46.14;96771.03;5097515;28;20275;-59
2021/07/03 08:17:58;;;;;;;4.40;4.00;;;;;;;25.00;45.46;96772.78;5110473;28;20210;-56
2021/07/03 08:20:23;;;;;;;4.90;4.40;;;;;;;25.15;45.06;96771.50;5106551;28;20263;-58
2021/07/03 08:22:51;;;;;;;6.32;4.32;;;;;;;24.96;46.05;96763.81;5090366;28;20195;-56
2021/07/03 08:25:18;;;;;;;5.15;4.05;;;;;;;24.46;47.14;96768.13;5093731;28;20569;-55
2021/07/03 08:27:44;;;;;;;5.68;4.28;;;;;;;24.71;44.70;96768.09;5092169;28;20176;-57
2021/07/03 08:30:11;;;;;;;6.13;3.70;;;;;;;24.96;44.89;96761.13;5104793;28;20180;-57
2021/07/03 08:32:36;;;;;;;6.20;4.00;;;;;;;25.00;44.94;96772.78;5109460;28;20187;-56
2021/07/03 08:35:03;;;;;;;5.63;4.10;;;;;;;24.69;44.67;96770.28;5109354;28;20188;-56
2021/07/03 08:37:28;;;;;;;4.88;3.95;;;;;;;24.65;44.06;96765.88;5106206;28;20184;-57
2021/07/03 08:39:54;;;;;;;5.75;4.10;;;;;;;24.35;45.63;96763.03;5101774;28;20772;-57
2021/07/03 08:42:19;;;;;;;5.95;4.10;;;;;;;24.42;44.69;96755.31;5110360;28;20264;-55
2021/07/03 08:44:46;;;;;;;5.68;4.25;;;;;;;24.51;45.23;96767.94;5103390;28;20204;-57
2021/07/03 08:47:12;;;;;;;4.88;4.35;;;;;;;24.47;45.76;96765.09;5098363;28;20241;-57
2021/07/03 08:49:38;;;;;;;4.03;3.45;;;;;;;24.37;45.24;96763.53;5102492;28;20240;-55
2021/07/03 08:52:19;;;;;;;4.50;4.10;;;;;;;24.65;43.83;96771.25;5097533;28;20283;-55
2021/07/03 08:54:54;;;;;;;5.18;4.18;;;;;;;24.77;44.28;96780.22;5102437;28;20284;-57
2021/07/03 08:57:20;;;;;;;4.57;4.18;;;;;;;24.71;45.44;96773.44;5102637;28;20179;-54
2021/07/03 08:59:56;;;;;;;4.85;4.20;;;;;;;24.34;47.03;96766.84;5099397;28;20587;-56
2021/07/03 09:02:34;;;;;;;5.65;3.97;;;;;;;24.56;45.91;96770.47;5089010;28;20180;-58
2021/07/03 09:05:00;;;;;;;3.85;3.38;;;;;;;24.95;44.96;96767.59;5106616;28;20229;-55
2021/07/03 09:07:34;;;;;;;4.00;3.53;;;;;;;25.00;43.96;96762.06;5100420;28;20212;-57
2021/07/03 09:09:59;;;;;;;4.50;4.00;;;;;;;25.05;42.82;96767.25;5098415;28;20695;-57
2021/07/03 09:12:33;;;;;;;5.68;3.63;;;;;;;25.14;42.35;96769.91;5098897;28;20183;-57
2021/07/03 09:15:12;;;;;;;4.47;3.65;;;;;;;25.18;42.17;96754.75;5109677;28;20199;-56
2021/07/03 09:17:51;;;;;;;3.63;3.33;;;;;;;25.19;42.01;96750.94;5092101;28;20606;-56
2021/07/03 09:20:37;;;;;;;3.58;3.28;;;;;;;25.42;40.15;96746.91;5103384;28;20638;-57
2021/07/03 09:23:10;;;;;;;3.72;3.38;;;;;;;25.52;40.86;96746.53;5093715;28;20175;-56
2021/07/03 09:25:37;;;;;;;3.58;3.28;;;;;;;25.49;40.13;96738.38;5091140;28;20280;-60
2021/07/03 09:28:39;;;;;;;3.58;3.17;;;;;;;25.50;39.96;96739.94;5109701;28;20176;-54
2021/07/03 09:31:06;;;;;;;3.45;3.15;;;;;;;25.58;39.45;96737.22;5107690;28;20344;-55
2021/07/03 09:33:35;;;;;;;3.72;3.30;;;;;;;25.59;40.19;96741.50;5093386;28;20184;-60
2021/07/03 09:36:02;;;;;;;5.93;3.67;;;;;;;25.60;40.41;96740.38;5097191;28;20179;-57
2021/07/03 09:38:37;;;;;;;3.95;3.45;;;;;;;25.73;39.95;96743.16;5102787;28;20226;-57
2021/07/03 09:41:11;;;;;;;3.78;3.42;;;;;;;25.47;39.18;96743.25;5101317;28;20187;-57
2021/07/03 09:43:52;;;;;;;4.20;3.33;;;;;;;25.31;39.32;96737.66;5089097;28;20206;-57
2021/07/03 09:46:28;;;;;;;4.07;3.60;;;;;;;25.31;39.46;96732.28;5099269;28;20184;-54
2021/07/03 09:48:59;;;;;;;3.55;3.25;;;;;;;25.38;40.51;96729.88;5093519;28;20195;-57
2021/07/03 09:51:29;;;;;;;3.70;3.22;;;;;;;25.08;41.57;96725.56;5108139;28;20180;-57
2021/07/03 09:53:57;;;;;;;5.38;3.70;;;;;;;25.29;40.87;96714.94;5079003;28;20188;-55
2021/07/03 09:56:22;;;;;;;3.38;3.08;;;;;;;25.11;41.67;96722.28;5103200;28;20233;-57
2021/07/03 09:58:48;;;;;;;3.88;3.53;;;;;;;25.00;40.34;96710.31;5101800;28;20192;-57
2021/07/03 10:01:13;;;;;;;3.63;3.33;;;;;;;25.06;41.01;96709.03;5096207;28;20188;-54
2021/07/03 10:03:39;;;;;;;3.40;3.10;;;;;;;25.15;40.43;96710.56;5096065;28;20334;-56
2021/07/03 10:06:07;;;;;;;3.45;3.15;;;;;;;25.29;39.24;96712.25;5110574;28;20579;-57
2021/07/03 10:08:39;;;;;;;4.00;3.33;;;;;;;25.32;38.16;96712.41;5097581;28;20211;-61
2021/07/03 10:11:08;;;;;;;3.10;2.80;;;;;;;25.23;37.96;96712.44;5106026;28;20266;-56
2021/07/03 10:13:34;;;;;;;3.22;2.92;;;;;;;25.07;36.85;96718.66;5109550;28;20188;-57
2021/07/03 10:16:05;;;;;;;3.33;3.13;;;;;;;24.29;40.00;96723.34;5101498;28;20329;-56
2021/07/03 10:18:31;;;;;;;3.15;2.85;;;;;;;24.58;39.82;96720.78;5096675;28;20184;-56
2021/07/03 10:21:10;;;;;;;3.13;2.90;;;;;;;24.77;40.83;96717.75;5109310;28;21008;-57
2021/07/03 10:23:44;;;;;;;3.63;3.33;;;;;;;24.96;39.86;96704.81;5092754;28;20215;-60
2021/07/03 10:26:11;;;;;;;8.50;3.20;;;;;;;25.16;42.08;96706.00;5109388;28;20210;-60
2021/07/03 10:28:39;;;;;;;3.63;3.33;;;;;;;25.23;40.23;96703.59;5094562;28;20184;-61
2021/07/03 10:31:11;;;;;;;4.40;3.33;;;;;;;25.19;38.48;96711.50;5090113;28;20218;-60
2021/07/03 10:33:45;;;;;;;4.55;2.97;;;;;;;25.23;40.88;96690.19;5106369;28;20195;-60
2021/07/03 10:36:31;;;;;;;4.72;4.22;;;;;;;25.31;40.37;96689.34;5104279;28;20194;-56
2021/07/03 10:38:59;;;;;;;6.20;4.38;;;;;;;25.38;40.04;96695.00;5102583;28;20228;-57
2021/07/03 10:41:30;;;;;;;28.92;25.85;;;;;;;24.92;39.73;96686.97;5111344;28;20184;-57
2021/07/03 10:44:06;;;;;;;375.77;335.55;;;;;;;25.22;40.82;96689.41;5110172;28;20183;-57
2021/07/03 10:46:41;;;;;;;562.15;511.67;;;;;;;25.43;38.89;96680.59;5109053;28;20179;-57
2021/07/03 10:49:16;;;;;;;14.90;13.32;;;;;;;25.36;38.42;96680.31;5100216;28;20168;-57
2021/07/03 10:51:44;;;;;;;3.83;3.50;;;;;;;25.25;38.38;96682.59;5095477;28;20207;-56
2021/07/03 10:54:24;;;;;;;4.03;3.33;;;;;;;25.30;38.28;96684.31;5106600;28;20206;-56
2021/07/03 10:56:49;;;;;;;3.08;2.80;;;;;;;25.49;38.15;96672.03;5082414;28;20175;-56
2021/07/03 10:59:16;;;;;;;3.13;2.90;;;;;;;25.60;37.77;96678.63;5107130;28;20260;-57
2021/07/03 11:01:42;;;;;;;3.33;3.03;;;;;;;25.00;38.71;96684.28;5105156;28;20689;-53
2021/07/03 11:04:17;;;;;;;3.63;3.05;;;;;;;25.22;38.69;96669.81;5114326;28;20267;-55
2021/07/03 11:06:53;;;;;;;6.38;5.78;;;;;;;25.58;39.72;96670.13;5101954;28;20543;-60
2021/07/03 11:09:21;;;;;;;4.18;3.83;;;;;;;25.45;38.98;96670.34;5095391;28;20669;-60
2021/07/03 11:11:47;;;;;;;4.38;3.47;;;;;;;25.50;39.23;96670.94;5102537;28;20181;-60
2021/07/03 11:14:18;;;;;;;3.40;3.10;;;;;;;25.26;38.22;96668.06;5108665;28;20728;-60
2021/07/03 11:16:49;;;;;;;3.30;2.85;;;;;;;24.94;38.23;96664.13;5096622;28;20237;-60
2021/07/03 11:19:20;;;;;;;2.90;2.65;;;;;;;24.95;38.49;96667.59;5104314;28;20259;-61
2021/07/03 11:21:45;;;;;;;3.03;2.72;;;;;;;25.21;39.48;96661.00;5108232;28;20652;-60
2021/07/03 11:24:11;;;;;;;3.08;2.72;;;;;;;25.46;39.13;96656.59;5105241;28;20200;-60
2021/07/03 11:26:36;;;;;;;3.22;2.72;;;;;;;25.60;37.76;96656.38;5102567;28;20313;-62
2021/07/03 11:29:03;;;;;;;2.78;2.50;;;;;;;25.63;38.74;96661.88;5099304;28;20180;-60
2021/07/03 11:31:28;;;;;;;3.22;2.92;;;;;;;25.73;37.17;96651.88;5101704;28;20192;-60